Time;durP1;ratioP1;P1;durP2;ratioP2;P2;SDS_P1;SDS_P2;PMS_P1;PMS_P2;Temp;Humidity;BMP_temperature;BMP_pressure;BME280_temperature;BME280_humidity;BME280_pressure;Samples;Min_cycle;Max_cycle;Signal;HPM_P1;HPM_P2
2021/09/21 00:01:21;;;;;;;18.90;12.20;;;;;;;;;;5050630;28;20025;-51
2021/09/21 00:03:47;;;;;;;30.23;18.92;;;;;;;;;;5050165;28;20021;-50
2021/09/21 00:06:14;;;;;;;18.17;12.55;;;;;;;;;;5047959;28;20071;-54
2021/09/21 00:08:40;;;;;;;13.27;9.60;;;;;;;;;;5049548;28;20469;-57
2021/09/21 00:11:07;;;;;;;13.65;8.00;;;;;;;;;;5051486;28;20473;-51
2021/09/21 00:13:34;;;;;;;15.02;10.27;;;;;;;;;;5052589;28;20021;-50
2021/09/21 00:16:00;;;;;;;17.80;11.15;;;;;;;;;;5052471;28;20021;-49
2021/09/21 00:18:27;;;;;;;17.10;10.95;;;;;;;;;;5053185;28;20045;-54
2021/09/21 00:20:53;;;;;;;44.42;24.98;;;;;;;;;;5053104;28;20017;-51
2021/09/21 00:23:19;;;;;;;20.15;12.98;;;;;;;;;;5052804;28;20049;-50
2021/09/21 00:25:45;;;;;;;21.08;12.60;;;;;;;;;;5053002;28;20036;-51
2021/09/21 00:28:12;;;;;;;24.02;14.23;;;;;;;;;;5053042;28;20025;-57
2021/09/21 00:30:45;;;;;;;26.27;15.48;;;;;;;;;;5053011;28;20040;-55
2021/09/21 00:33:16;;;;;;;27.70;15.30;;;;;;;;;;5052911;28;20064;-54
2021/09/21 00:35:45;;;;;;;31.58;18.77;;;;;;;;;;5053081;28;20029;-58
2021/09/21 00:38:12;;;;;;;25.00;12.45;;;;;;;;;;5052808;28;20013;-54
2021/09/21 00:40:38;;;;;;;23.38;13.85;;;;;;;;;;5053002;28;20102;-53
2021/09/21 00:43:04;;;;;;;20.33;12.57;;;;;;;;;;5052847;28;20067;-55
2021/09/21 00:45:31;;;;;;;23.92;16.00;;;;;;;;;;5052821;28;20461;-54
2021/09/21 00:47:57;;;;;;;34.60;13.80;;;;;;;;;;5052820;28;20470;-52
2021/09/21 00:50:27;;;;;;;17.40;10.13;;;;;;;;;;5052475;28;20033;-55
2021/09/21 00:52:55;;;;;;;19.23;7.78;;;;;;;;;;5049833;28;20035;-51
2021/09/21 00:55:21;;;;;;;22.48;13.80;;;;;;;;;;5052194;28;20021;-57
2021/09/21 00:57:47;;;;;;;30.10;18.42;;;;;;;;;;5052034;28;20027;-55
2021/09/21 01:00:14;;;;;;;42.20;24.30;;;;;;;;;;5052199;28;20443;-56
2021/09/21 01:02:41;;;;;;;28.45;16.52;;;;;;;;;;5052222;28;20082;-53
2021/09/21 01:05:08;;;;;;;28.58;13.68;;;;;;;;;;5052067;28;20028;-56
2021/09/21 01:07:38;;;;;;;37.58;20.45;;;;;;;;;;5052481;28;20025;-54
2021/09/21 01:10:05;;;;;;;25.85;14.38;;;;;;;;;;5052428;28;20037;-56
2021/09/21 01:12:31;;;;;;;26.90;13.93;;;;;;;;;;5053692;28;20031;-57
2021/09/21 01:14:58;;;;;;;25.65;15.40;;;;;;;;;;5056228;28;20029;-57
2021/09/21 01:17:24;;;;;;;12.63;7.93;;;;;;;;;;5056088;28;20043;-54
2021/09/21 01:19:50;;;;;;;28.02;16.55;;;;;;;;;;5056077;28;20020;-51
2021/09/21 01:22:16;;;;;;;42.53;19.83;;;;;;;;;;5056014;28;20052;-58
2021/09/21 01:24:45;;;;;;;37.95;21.15;;;;;;;;;;5055877;28;20049;-52
2021/09/21 01:27:11;;;;;;;37.42;19.33;;;;;;;;;;5055935;28;20483;-57
2021/09/21 01:29:37;;;;;;;13.68;9.18;;;;;;;;;;5055953;28;20100;-54
2021/09/21 01:32:03;;;;;;;11.98;8.00;;;;;;;;;;5055809;28;20040;-51
2021/09/21 01:34:30;;;;;;;16.50;11.18;;;;;;;;;;5055624;28;20028;-52
2021/09/21 01:36:56;;;;;;;19.02;9.75;;;;;;;;;;5055875;28;20461;-58
2021/09/21 01:39:24;;;;;;;11.73;7.55;;;;;;;;;;5055717;28;20029;-54
2021/09/21 01:41:50;;;;;;;12.50;9.05;;;;;;;;;;5055829;28;20024;-57
2021/09/21 01:44:17;;;;;;;15.32;8.68;;;;;;;;;;5055537;28;20073;-50
2021/09/21 01:46:44;;;;;;;13.88;8.90;;;;;;;;;;5055707;28;20358;-57
2021/09/21 01:49:14;;;;;;;18.15;10.95;;;;;;;;;;5055496;28;20097;-53
2021/09/21 01:51:44;;;;;;;10.57;7.93;;;;;;;;;;5055468;28;20044;-56
2021/09/21 01:59:27;;;;;;;10.50;7.72;;;;;;;;;;5055461;28;20464;-55
2021/09/21 02:01:54;;;;;;;12.75;7.10;;;;;;;;;;5055319;28;20509;-50
2021/09/21 02:04:23;;;;;;;11.68;6.82;;;;;;;;;;5055264;28;20079;-54
2021/09/21 02:06:49;;;;;;;8.65;6.65;;;;;;;;;;5055555;28;20025;-50
2021/09/21 02:09:15;;;;;;;15.10;6.38;;;;;;;;;;5055496;28;20400;-57
2021/09/21 02:11:43;;;;;;;14.45;6.80;;;;;;;;;;5055196;28;20056;-51
2021/09/21 02:14:11;;;;;;;9.05;6.63;;;;;;;;;;5055223;28;20021;-51
2021/09/21 02:16:38;;;;;;;8.95;6.47;;;;;;;;;;5055023;28;20033;-53
2021/09/21 02:19:04;;;;;;;12.52;8.43;;;;;;;;;;5055127;28;20017;-54
2021/09/21 02:21:30;;;;;;;9.15;7.20;;;;;;;;;;5055034;28;20021;-55
2021/09/21 02:23:57;;;;;;;15.40;7.30;;;;;;;;;;5054496;28;20041;-53
2021/09/21 02:26:25;;;;;;;11.35;6.80;;;;;;;;;;5055035;28;20028;-53
2021/09/21 02:28:51;;;;;;;12.02;7.88;;;;;;;;;;5054884;28;20043;-57
2021/09/21 02:31:19;;;;;;;12.20;8.20;;;;;;;;;;5054760;28;20037;-50
2021/09/21 02:33:45;;;;;;;10.68;7.00;;;;;;;;;;5054634;28;20033;-55
2021/09/21 02:36:12;;;;;;;10.88;6.93;;;;;;;;;;5054855;28;20533;-54
2021/09/21 02:38:38;;;;;;;12.02;7.30;;;;;;;;;;5054620;28;20519;-55
2021/09/21 02:41:05;;;;;;;9.60;7.07;;;;;;;;;;5054659;28;20469;-57
2021/09/21 02:43:31;;;;;;;11.80;8.20;;;;;;;;;;5054677;28;20021;-57
2021/09/21 02:46:01;;;;;;;14.45;7.07;;;;;;;;;;5054455;28;20105;-54
2021/09/21 02:48:33;;;;;;;9.20;7.32;;;;;;;;;;5054720;28;20029;-57
2021/09/21 02:50:59;;;;;;;8.40;6.75;;;;;;;;;;5054542;28;20485;-58
2021/09/21 02:53:26;;;;;;;11.05;6.63;;;;;;;;;;5054254;28;20036;-58
2021/09/21 02:55:52;;;;;;;10.05;7.53;;;;;;;;;;5054337;28;20036;-57
2021/09/21 02:58:20;;;;;;;15.35;6.35;;;;;;;;;;5054367;28;20082;-52
2021/09/21 03:00:49;;;;;;;11.02;7.40;;;;;;;;;;5054302;28;20027;-54
2021/09/21 03:03:16;;;;;;;13.32;7.50;;;;;;;;;;5054321;28;20048;-54
2021/09/21 03:05:45;;;;;;;12.13;6.80;;;;;;;;;;5054500;28;20052;-51
2021/09/21 03:08:16;;;;;;;21.73;8.38;;;;;;;;;;5054348;28;20071;-54
2021/09/21 03:11:11;;;;;;;;;;;;;;;;;;5054901;28;20025;-49
2021/09/21 03:18:57;;;;;;;16.58;10.48;;;;;;;;;;5054277;28;20036;-58
2021/09/21 03:21:24;;;;;;;17.65;12.00;;;;;;;;;;5053921;28;20112;-58
2021/09/21 03:23:50;;;;;;;21.17;12.40;;;;;;;;;;5053647;28;20045;-57
2021/09/21 03:26:16;;;;;;;20.10;15.70;;;;;;;;;;5053819;28;20465;-55
2021/09/21 03:28:42;;;;;;;34.28;23.77;;;;;;;;;;5053717;28;20025;-53
2021/09/21 03:31:08;;;;;;;23.42;16.90;;;;;;;;;;5053846;28;20151;-53
2021/09/21 03:33:35;;;;;;;25.48;19.52;;;;;;;;;;5053563;28;20504;-48
2021/09/21 03:36:01;;;;;;;18.85;13.55;;;;;;;;;;5053132;28;20104;-56
2021/09/21 03:38:27;;;;;;;14.63;10.07;;;;;;;;;;5053570;28;20392;-52
2021/09/21 03:40:53;;;;;;;19.27;10.02;;;;;;;;;;5053651;28;20028;-56
2021/09/21 03:43:19;;;;;;;14.38;7.97;;;;;;;;;;5053349;28;20472;-56
2021/09/21 03:45:45;;;;;;;14.02;9.23;;;;;;;;;;5053651;28;20025;-55
2021/09/21 03:48:11;;;;;;;12.80;8.60;;;;;;;;;;5053509;28;20029;-53
2021/09/21 03:50:37;;;;;;;12.00;7.38;;;;;;;;;;5053346;28;20043;-53
2021/09/21 03:53:04;;;;;;;11.75;8.98;;;;;;;;;;5053291;28;20017;-48
2021/09/21 03:55:30;;;;;;;9.45;7.50;;;;;;;;;;5053309;28;20021;-52
2021/09/21 03:57:56;;;;;;;9.07;7.30;;;;;;;;;;5053503;28;20370;-53
2021/09/21 04:00:25;;;;;;;12.82;7.43;;;;;;;;;;5053351;28;20064;-49
2021/09/21 04:02:51;;;;;;;12.65;8.70;;;;;;;;;;5053086;28;20021;-52
2021/09/21 04:05:17;;;;;;;11.70;6.65;;;;;;;;;;5053156;28;20457;-54
2021/09/21 04:07:43;;;;;;;12.40;7.07;;;;;;;;;;5053120;28;20032;-49
2021/09/21 04:10:10;;;;;;;14.07;7.72;;;;;;;;;;5052989;28;20017;-54
2021/09/21 04:12:36;;;;;;;10.45;7.50;;;;;;;;;;5053436;28;20029;-51
2021/09/21 04:15:05;;;;;;;11.82;8.07;;;;;;;;;;5053103;28;20075;-56
2021/09/21 04:17:31;;;;;;;9.10;7.45;;;;;;;;;;5052918;28;20031;-51
2021/09/21 04:19:57;;;;;;;14.55;8.10;;;;;;;;;;5053121;28;20386;-54
2021/09/21 04:22:24;;;;;;;16.95;7.53;;;;;;;;;;5053073;28;20025;-52
2021/09/21 04:24:50;;;;;;;8.93;6.75;;;;;;;;;;5052605;28;20045;-53
2021/09/21 04:27:16;;;;;;;14.52;7.45;;;;;;;;;;5053141;28;20389;-53
2021/09/21 04:29:42;;;;;;;11.13;7.70;;;;;;;;;;5052918;28;20029;-56
2021/09/21 04:32:08;;;;;;;13.40;7.60;;;;;;;;;;5052860;28;20029;-54
2021/09/21 04:34:35;;;;;;;12.38;6.82;;;;;;;;;;5052823;28;20051;-50
2021/09/21 04:37:04;;;;;;;12.90;7.78;;;;;;;;;;5052853;28;20127;-57
2021/09/21 04:39:31;;;;;;;13.63;7.72;;;;;;;;;;5052772;28;20574;-51
2021/09/21 04:41:59;;;;;;;15.13;7.35;;;;;;;;;;5052954;28;20491;-49
2021/09/21 04:44:25;;;;;;;13.40;7.78;;;;;;;;;;5052766;28;20487;-57
2021/09/21 04:46:51;;;;;;;14.13;9.80;;;;;;;;;;5052868;28;20025;-56
2021/09/21 04:49:17;;;;;;;20.05;12.55;;;;;;;;;;5056801;28;20024;-52
2021/09/21 04:51:45;;;;;;;29.80;15.88;;;;;;;;;;5056834;28;20032;-55
2021/09/21 04:54:11;;;;;;;29.15;17.05;;;;;;;;;;5056600;28;20021;-56
2021/09/21 04:56:37;;;;;;;30.45;17.08;;;;;;;;;;5056646;28;20056;-58
2021/09/21 04:59:03;;;;;;;19.75;13.05;;;;;;;;;;5056307;28;20546;-52
2021/09/21 05:01:30;;;;;;;18.55;9.73;;;;;;;;;;5055178;28;20029;-56
2021/09/21 05:03:56;;;;;;;43.63;24.48;;;;;;;;;;5055657;28;20507;-52
2021/09/21 05:06:26;;;;;;;26.27;15.90;;;;;;;;;;5055209;28;20112;-55
2021/09/21 05:08:53;;;;;;;41.20;20.97;;;;;;;;;;5054942;28;20020;-58
2021/09/21 05:11:19;;;;;;;35.83;19.55;;;;;;;;;;5055943;28;20536;-58
2021/09/21 05:13:45;;;;;;;27.98;17.52;;;;;;;;;;5056285;28;20029;-55
2021/09/21 05:16:11;;;;;;;20.73;10.95;;;;;;;;;;5056380;28;20024;-58
2021/09/21 05:18:37;;;;;;;18.98;10.05;;;;;;;;;;5056411;28;20035;-55
2021/09/21 05:21:03;;;;;;;21.88;10.43;;;;;;;;;;5056509;28;20029;-50
2021/09/21 05:23:29;;;;;;;17.80;8.45;;;;;;;;;;5056084;28;20087;-57
2021/09/21 05:25:56;;;;;;;12.68;7.65;;;;;;;;;;5056246;28;20153;-52
2021/09/21 05:28:26;;;;;;;13.32;8.88;;;;;;;;;;5056057;28;20049;-51
2021/09/21 05:30:52;;;;;;;17.77;8.73;;;;;;;;;;5055964;28;20055;-57
2021/09/21 05:33:18;;;;;;;21.05;12.07;;;;;;;;;;5055952;28;20258;-54
2021/09/21 05:35:45;;;;;;;19.25;11.57;;;;;;;;;;5055918;28;20508;-58
2021/09/21 05:38:11;;;;;;;25.05;14.73;;;;;;;;;;5055686;28;20048;-59
2021/09/21 05:40:37;;;;;;;13.05;8.32;;;;;;;;;;5055924;28;20047;-58
2021/09/21 05:43:08;;;;;;;14.48;9.57;;;;;;;;;;5055792;28;20032;-50
2021/09/21 05:45:34;;;;;;;17.15;9.88;;;;;;;;;;5055873;28;20469;-58
2021/09/21 05:48:00;;;;;;;14.27;8.15;;;;;;;;;;5055681;28;20392;-56
2021/09/21 05:50:26;;;;;;;11.25;7.30;;;;;;;;;;5055621;28;20017;-59
2021/09/21 05:52:52;;;;;;;13.10;7.60;;;;;;;;;;5055619;28;20432;-55
2021/09/21 05:55:19;;;;;;;12.10;7.43;;;;;;;;;;5055469;28;20064;-52
2021/09/21 05:57:45;;;;;;;12.95;6.82;;;;;;;;;;5054928;28;20032;-54
2021/09/21 06:00:12;;;;;;;8.40;6.88;;;;;;;;;;5055686;28;20071;-50
2021/09/21 06:02:40;;;;;;;10.88;7.53;;;;;;;;;;5055720;28;20029;-52
2021/09/21 06:05:07;;;;;;;10.23;7.25;;;;;;;;;;5055243;28;20029;-58
2021/09/21 06:07:34;;;;;;;19.73;9.63;;;;;;;;;;5055336;28;20028;-55
2021/09/21 06:10:00;;;;;;;8.68;6.55;;;;;;;;;;5055155;28;20032;-55
2021/09/21 06:12:27;;;;;;;11.95;7.05;;;;;;;;;;5055193;28;20083;-57
2021/09/21 06:14:53;;;;;;;11.95;6.45;;;;;;;;;;5055143;28;20017;-52
2021/09/21 06:17:19;;;;;;;12.73;6.70;;;;;;;;;;5055104;28;20087;-53
2021/09/21 06:19:46;;;;;;;13.00;7.20;;;;;;;;;;5055273;28;20484;-57
2021/09/21 06:22:14;;;;;;;10.80;6.97;;;;;;;;;;5055187;28;20060;-55
2021/09/21 06:24:40;;;;;;;9.65;6.72;;;;;;;;;;5054695;28;20428;-56
2021/09/21 06:27:08;;;;;;;10.60;7.78;;;;;;;;;;5055071;28;20082;-56
2021/09/21 06:29:35;;;;;;;19.10;12.50;;;;;;;;;;5050506;28;20020;-53
2021/09/21 06:32:01;;;;;;;23.80;14.45;;;;;;;;;;5048891;28;20068;-57
2021/09/21 06:34:29;;;;;;;16.45;11.95;;;;;;;;;;5054935;28;20025;-55
2021/09/21 06:36:58;;;;;;;37.38;21.25;;;;;;;;;;5054859;28;20448;-57
2021/09/21 06:39:25;;;;;;;23.00;12.98;;;;;;;;;;5054903;28;20050;-57
2021/09/21 06:41:51;;;;;;;29.38;18.77;;;;;;;;;;5054856;28;20107;-57
2021/09/21 06:44:17;;;;;;;28.15;18.00;;;;;;;;;;5053275;28;20466;-58
2021/09/21 06:46:43;;;;;;;15.70;10.05;;;;;;;;;;5054616;28;20464;-55
2021/09/21 06:49:09;;;;;;;15.88;10.88;;;;;;;;;;5054716;28;20025;-58
2021/09/21 06:51:35;;;;;;;28.70;15.90;;;;;;;;;;5054624;28;20028;-58
2021/09/21 06:54:01;;;;;;;27.05;14.10;;;;;;;;;;5054308;28;20385;-58
2021/09/21 06:56:28;;;;;;;21.30;12.18;;;;;;;;;;5054540;28;20100;-54
2021/09/21 06:58:55;;;;;;;47.97;25.55;;;;;;;;;;5054576;28;20041;-60
2021/09/21 07:01:23;;;;;;;39.53;22.65;;;;;;;;;;5054335;28;20091;-60
2021/09/21 07:03:49;;;;;;;40.47;22.50;;;;;;;;;;5054185;28;20025;-59
2021/09/21 07:06:15;;;;;;;54.20;33.40;;;;;;;;;;5054272;28;20033;-61
2021/09/21 07:08:42;;;;;;;84.20;46.22;;;;;;;;;;5054216;28;20031;-59
2021/09/21 07:11:08;;;;;;;56.55;30.95;;;;;;;;;;5055292;28;20120;-61
2021/09/21 07:13:34;;;;;;;27.23;16.88;;;;;;;;;;5055998;28;20052;-59
2021/09/21 07:16:00;;;;;;;33.25;20.83;;;;;;;;;;5056184;28;20024;-62
2021/09/21 07:18:26;;;;;;;28.75;16.15;;;;;;;;;;5054213;28;20025;-61
2021/09/21 07:20:52;;;;;;;43.65;22.77;;;;;;;;;;5054110;28;20127;-61
2021/09/21 07:23:18;;;;;;;37.03;20.95;;;;;;;;;;5053738;28;20045;-62
2021/09/21 07:25:44;;;;;;;32.55;19.88;;;;;;;;;;5054027;28;20087;-62
2021/09/21 07:28:10;;;;;;;20.92;14.20;;;;;;;;;;5053732;28;20353;-62
2021/09/21 07:30:36;;;;;;;43.03;22.10;;;;;;;;;;5053818;28;20032;-60
2021/09/21 07:33:04;;;;;;;34.22;20.05;;;;;;;;;;5053690;28;20057;-56
2021/09/21 07:35:30;;;;;;;42.72;25.05;;;;;;;;;;5053666;28;20420;-58
2021/09/21 07:37:56;;;;;;;36.92;21.30;;;;;;;;;;5053806;28;20036;-59
2021/09/21 07:40:22;;;;;;;40.70;22.83;;;;;;;;;;5053674;28;20112;-60
2021/09/21 07:42:51;;;;;;;33.53;21.15;;;;;;;;;;5053941;28;20088;-59
2021/09/21 07:45:17;;;;;;;26.67;15.35;;;;;;;;;;5053776;28;20021;-58
2021/09/21 07:47:44;;;;;;;26.38;16.35;;;;;;;;;;5053675;28;20423;-62
2021/09/21 07:50:11;;;;;;;26.08;15.43;;;;;;;;;;5053478;28;20025;-60
2021/09/21 07:52:37;;;;;;;46.70;22.60;;;;;;;;;;5053253;28;20392;-61
2021/09/21 07:55:04;;;;;;;24.85;15.20;;;;;;;;;;5053565;28;20214;-62
2021/09/21 07:57:30;;;;;;;61.38;30.73;;;;;;;;;;5053289;28;20083;-62
2021/09/21 07:59:56;;;;;;;27.80;16.35;;;;;;;;;;5053237;28;20028;-61
2021/09/21 08:02:22;;;;;;;40.95;26.33;;;;;;;;;;5053298;28;20071;-60
2021/09/21 08:04:48;;;;;;;85.88;50.10;;;;;;;;;;5053094;28;20049;-66
2021/09/21 08:07:14;;;;;;;128.90;78.82;;;;;;;;;;5053226;28;20496;-60
2021/09/21 08:09:44;;;;;;;36.75;20.60;;;;;;;;;;5052978;28;20028;-62
2021/09/21 08:12:10;;;;;;;41.67;19.60;;;;;;;;;;5053304;28;20400;-61
2021/09/21 08:14:37;;;;;;;115.90;52.17;;;;;;;;;;5053457;28;20025;-61
2021/09/21 08:17:10;;;;;;;43.10;20.35;;;;;;;;;;5051942;28;20393;-61
2021/09/21 08:19:36;;;;;;;12.43;8.05;;;;;;;;;;5053340;28;20392;-63
2021/09/21 08:22:02;;;;;;;102.93;50.63;;;;;;;;;;5052703;28;20029;-60
2021/09/21 08:24:28;;;;;;;26.83;13.43;;;;;;;;;;5052889;28;20057;-61
2021/09/21 08:26:55;;;;;;;40.42;23.02;;;;;;;;;;5053076;28;20108;-62
2021/09/21 08:29:21;;;;;;;43.45;22.20;;;;;;;;;;5053391;28;20017;-61
2021/09/21 08:31:47;;;;;;;37.17;20.80;;;;;;;;;;5052906;28;20029;-64
2021/09/21 08:34:13;;;;;;;61.47;30.85;;;;;;;;;;5053285;28;20029;-62
2021/09/21 08:36:39;;;;;;;13.02;6.63;;;;;;;;;;5052941;28;20502;-61
2021/09/21 08:39:05;;;;;;;20.02;12.82;;;;;;;;;;5052821;28;20028;-61
2021/09/21 08:41:32;;;;;;;19.17;10.82;;;;;;;;;;5052865;28;20075;-61
2021/09/21 08:43:58;;;;;;;13.25;6.65;;;;;;;;;;5053054;28;20047;-60
2021/09/21 08:46:25;;;;;;;12.25;7.47;;;;;;;;;;5052829;28;20468;-58
2021/09/21 08:48:51;;;;;;;30.83;17.60;;;;;;;;;;5052711;28;20067;-57
2021/09/21 08:51:19;;;;;;;38.38;20.83;;;;;;;;;;5052835;28;20037;-58
2021/09/21 08:53:45;;;;;;;33.35;18.58;;;;;;;;;;5052671;28;20146;-57
2021/09/21 08:56:12;;;;;;;27.35;16.98;;;;;;;;;;5051362;28;20483;-60
2021/09/21 08:58:38;;;;;;;50.65;30.10;;;;;;;;;;5052974;28;20477;-58
2021/09/21 09:01:11;;;;;;;20.25;11.75;;;;;;;;;;5052865;28;20056;-59
2021/09/21 09:03:37;;;;;;;55.38;31.27;;;;;;;;;;5052846;28;20051;-58
2021/09/21 09:06:10;;;;;;;16.35;10.90;;;;;;;;;;5052626;28;20060;-58
2021/09/21 09:08:37;;;;;;;57.22;33.80;;;;;;;;;;5052643;28;20067;-58
2021/09/21 09:11:11;;;;;;;29.17;19.02;;;;;;;;;;5052943;28;20404;-58
2021/09/21 09:13:40;;;;;;;21.63;10.65;;;;;;;;;;5052839;28;20032;-59
2021/09/21 09:16:10;;;;;;;59.55;33.45;;;;;;;;;;5053131;28;20354;-59
2021/09/21 09:18:37;;;;;;;29.80;17.38;;;;;;;;;;5052905;28;20029;-60
2021/09/21 09:21:03;;;;;;;15.90;11.30;;;;;;;;;;5052752;28;20071;-60
2021/09/21 09:23:29;;;;;;;69.28;35.55;;;;;;;;;;5052895;28;20049;-58
2021/09/21 09:25:55;;;;;;;15.82;9.55;;;;;;;;;;5052876;28;20433;-57
2021/09/21 09:28:23;;;;;;;10.52;7.57;;;;;;;;;;5052752;28;20048;-60
2021/09/21 09:30:50;;;;;;;23.30;14.90;;;;;;;;;;5052705;28;20024;-58
2021/09/21 09:33:16;;;;;;;15.55;10.27;;;;;;;;;;5053589;28;20480;-53
2021/09/21 09:35:46;;;;;;;16.65;10.73;;;;;;;;;;5056204;28;20025;-53
2021/09/21 09:38:16;;;;;;;10.30;6.63;;;;;;;;;;5056267;28;20020;-47
2021/09/21 09:40:47;;;;;;;10.48;6.72;;;;;;;;;;5056194;28;20035;-48
2021/09/21 09:43:13;;;;;;;18.73;12.55;;;;;;;;;;5056203;28;20027;-48
2021/09/21 09:45:41;;;;;;;23.08;13.90;;;;;;;;;;5056048;28;20473;-48
2021/09/21 09:48:07;;;;;;;23.73;13.73;;;;;;;;;;5056011;28;20428;-47
2021/09/21 09:50:38;;;;;;;26.20;17.25;;;;;;;;;;5056006;28;20032;-47
2021/09/21 09:53:06;;;;;;;26.88;10.80;;;;;;;;;;5055941;28;20041;-48
2021/09/21 09:55:33;;;;;;;15.13;10.52;;;;;;;;;;5055741;28;20028;-48
2021/09/21 09:58:01;;;;;;;31.30;8.48;;;;;;;;;;5056263;28;20089;-47
2021/09/21 10:00:27;;;;;;;19.98;10.43;;;;;;;;;;5055771;28;20017;-48
2021/09/21 10:02:54;;;;;;;19.15;12.75;;;;;;;;;;5055674;28;20103;-48
2021/09/21 10:05:20;;;;;;;17.80;9.52;;;;;;;;;;5056068;28;20017;-49
2021/09/21 10:07:47;;;;;;;11.00;6.53;;;;;;;;;;5055676;28;20024;-52
2021/09/21 10:10:13;;;;;;;11.68;6.57;;;;;;;;;;5055626;28;20099;-51
2021/09/21 10:12:40;;;;;;;18.30;11.00;;;;;;;;;;5055743;28;20033;-51
2021/09/21 10:15:07;;;;;;;18.83;10.82;;;;;;;;;;5055572;28;20060;-51
2021/09/21 10:17:35;;;;;;;25.58;14.50;;;;;;;;;;5055535;28;20021;-53
2021/09/21 10:20:03;;;;;;;20.92;10.00;;;;;;;;;;5055324;28;20029;-51
2021/09/21 10:22:31;;;;;;;17.90;8.98;;;;;;;;;;5055511;28;20469;-51
2021/09/21 10:25:11;;;;;;;22.45;10.48;;;;;;;;;;5055161;28;20056;-51
2021/09/21 10:27:38;;;;;;;;;;;;;;;;;;5055889;28;20045;-49
2021/09/21 10:30:06;;;;;;;21.08;12.05;;;;;;;;;;5055228;28;20066;-49
2021/09/21 10:32:40;;;;;;;23.45;13.15;;;;;;;;;;5055098;28;20111;-50
2021/09/21 10:35:09;;;;;;;33.83;21.08;;;;;;;;;;5055508;28;20120;-51
2021/09/21 10:37:35;;;;;;;39.38;22.77;;;;;;;;;;5055536;28;20104;-49
2021/09/21 10:40:02;;;;;;;25.65;15.82;;;;;;;;;;5055049;28;20032;-51
2021/09/21 10:42:29;;;;;;;34.10;20.35;;;;;;;;;;5055180;28;20350;-51
2021/09/21 10:44:57;;;;;;;22.73;14.95;;;;;;;;;;5054877;28;20021;-50
2021/09/21 10:47:26;;;;;;;37.22;20.05;;;;;;;;;;5054851;28;20063;-52
2021/09/21 10:49:52;;;;;;;30.42;17.13;;;;;;;;;;5054882;28;20099;-51
2021/09/21 10:52:20;;;;;;;45.70;30.10;;;;;;;;;;5054846;28;20060;-52
2021/09/21 10:54:53;;;;;;;36.88;23.20;;;;;;;;;;5054729;28;20111;-51
2021/09/21 10:57:30;;;;;;;22.02;12.98;;;;;;;;;;5055300;28;20025;-50
2021/09/21 10:59:57;;;;;;;20.95;13.45;;;;;;;;;;5054626;28;20103;-50
2021/09/21 11:02:25;;;;;;;25.35;14.85;;;;;;;;;;5054850;28;20043;-49
2021/09/21 11:04:51;;;;;;;18.63;10.43;;;;;;;;;;5054741;28;20037;-51
2021/09/21 11:07:17;;;;;;;28.35;17.67;;;;;;;;;;5054894;28;20029;-50
2021/09/21 11:09:50;;;;;;;26.83;16.02;;;;;;;;;;5054949;28;20021;-50
2021/09/21 11:12:16;;;;;;;12.32;6.97;;;;;;;;;;5054375;28;20044;-49
2021/09/21 11:14:43;;;;;;;20.80;11.68;;;;;;;;;;5054637;28;20074;-51
2021/09/21 11:17:10;;;;;;;10.82;6.82;;;;;;;;;;5054397;28;20020;-51
2021/09/21 11:19:37;;;;;;;12.30;6.80;;;;;;;;;;5054448;28;20025;-51
2021/09/21 11:22:10;;;;;;;11.00;7.63;;;;;;;;;;5054318;28;20492;-51
2021/09/21 11:24:37;;;;;;;13.50;8.70;;;;;;;;;;5054013;28;20485;-51
2021/09/21 11:27:04;;;;;;;12.90;7.05;;;;;;;;;;5054206;28;20100;-50
2021/09/21 11:29:31;;;;;;;11.15;6.07;;;;;;;;;;5054274;28;20028;-50
2021/09/21 11:32:00;;;;;;;7.03;5.18;;;;;;;;;;5053970;28;20033;-50
2021/09/21 11:34:29;;;;;;;6.43;4.63;;;;;;;;;;5053620;28;20062;-51
2021/09/21 11:37:01;;;;;;;8.20;5.45;;;;;;;;;;5054001;28;20108;-53
2021/09/21 11:39:31;;;;;;;9.90;6.10;;;;;;;;;;5052244;28;20050;-50
2021/09/21 11:41:57;;;;;;;9.95;5.10;;;;;;;;;;5050316;28;20017;-51
2021/09/21 11:44:23;;;;;;;20.70;5.70;;;;;;;;;;5052362;28;20507;-51
2021/09/21 11:46:59;;;;;;;10.88;5.85;;;;;;;;;;5052509;28;21125;-52
2021/09/21 11:49:25;;;;;;;6.93;5.03;;;;;;;;;;5051050;28;20050;-49
2021/09/21 11:51:52;;;;;;;6.88;4.55;;;;;;;;;;5052118;28;20037;-48
2021/09/21 11:54:19;;;;;;;7.68;4.88;;;;;;;;;;5052219;28;20052;-56
2021/09/21 11:56:45;;;;;;;20.90;14.75;;;;;;;;;;5051635;28;20437;-51
2021/09/21 11:59:14;;;;;;;122.78;81.15;;;;;;;;;;5052477;28;20021;-52
2021/09/21 12:01:40;;;;;;;517.08;389.85;;;;;;;;;;5052187;28;20017;-50
2021/09/21 12:04:06;;;;;;;109.30;75.72;;;;;;;;;;5050641;28;20055;-48
2021/09/21 12:06:38;;;;;;;22.13;14.27;;;;;;;;;;5052272;28;20776;-47
2021/09/21 12:09:05;;;;;;;38.40;22.55;;;;;;;;;;5050038;28;20017;-48
2021/09/21 12:11:36;;;;;;;38.45;19.20;;;;;;;;;;5052191;28;20433;-46
2021/09/21 12:14:02;;;;;;;;;;;;;;;;;;5050305;28;20404;-45
2021/09/21 12:16:28;;;;;;;88.85;19.30;;;;;;;;;;5052175;28;19904;-51
2021/09/21 12:18:58;;;;;;;77.45;49.85;;;;;;;;;;5051961;28;20429;-47
2021/09/21 12:21:27;;;;;;;74.03;47.40;;;;;;;;;;5052123;28;20029;-47
2021/09/21 12:23:56;;;;;;;117.30;66.88;;;;;;;;;;5051684;28;20041;-46
2021/09/21 12:26:22;;;;;;;75.65;36.72;;;;;;;;;;5049519;28;20108;-47
2021/09/21 12:28:52;;;;;;;129.27;72.30;;;;;;;;;;5052004;28;20021;-47
2021/09/21 12:31:21;;;;;;;76.17;44.60;;;;;;;;;;5051761;28;20017;-48
2021/09/21 12:33:48;;;;;;;33.38;18.30;;;;;;;;;;5051895;28;20032;-49
2021/09/21 12:36:27;;;;;;;21.10;9.40;;;;;;;;;;5051771;28;20044;-49
2021/09/21 12:39:17;;;;;;;22.63;12.13;;;;;;;;;;5053103;28;20059;-47
2021/09/21 12:41:45;;;;;;;30.77;20.23;;;;;;;;;;5030855;28;20073;-47
2021/09/21 12:44:11;;;;;;;63.33;31.05;;;;;;;;;;5030942;28;20051;-48
2021/09/21 12:46:40;;;;;;;169.73;78.68;;;;;;;;;;5030981;28;20552;-47
2021/09/21 12:49:06;;;;;;;67.03;36.17;;;;;;;;;;5030773;28;20033;-46
2021/09/21 12:51:35;;;;;;;90.30;50.10;;;;;;;;;;5030671;28;20037;-46
2021/09/21 12:54:02;;;;;;;43.20;24.92;;;;;;;;;;5030797;28;20060;-48
2021/09/21 12:56:29;;;;;;;29.40;15.98;;;;;;;;;;5030706;28;20022;-47
2021/09/21 12:59:02;;;;;;;42.35;27.45;;;;;;;;;;5030801;28;20045;-47
2021/09/21 13:01:31;;;;;;;46.75;25.25;;;;;;;;;;5030883;28;20096;-46
2021/09/21 13:03:57;;;;;;;107.15;63.67;;;;;;;;;;5030596;28;20528;-46
2021/09/21 13:06:23;;;;;;;69.63;39.67;;;;;;;;;;5030621;28;20073;-45
2021/09/21 13:08:49;;;;;;;92.80;55.55;;;;;;;;;;5032324;28;20029;-46
2021/09/21 13:11:16;;;;;;;79.28;49.88;;;;;;;;;;5034374;28;20476;-52
2021/09/21 13:13:42;;;;;;;89.07;54.47;;;;;;;;;;5034665;28;20613;-48
2021/09/21 13:16:08;;;;;;;34.65;22.67;;;;;;;;;;5034652;28;20053;-53
2021/09/21 13:18:34;;;;;;;18.42;11.00;;;;;;;;;;5044435;28;20044;-49
2021/09/21 13:21:00;;;;;;;11.98;8.60;;;;;;;;;;5056471;28;20078;-49
2021/09/21 13:23:27;;;;;;;16.30;11.18;;;;;;;;;;5056242;28;20099;-51
2021/09/21 13:25:55;;;;;;;17.98;10.57;;;;;;;;;;5056354;28;20048;-49
2021/09/21 13:28:25;;;;;;;15.02;10.85;;;;;;;;;;5056470;28;20051;-49
2021/09/21 13:30:51;;;;;;;96.72;65.40;;;;;;;;;;5056264;28;20504;-45
2021/09/21 13:33:18;;;;;;;59.03;34.53;;;;;;;;;;5055895;28;20033;-46
2021/09/21 13:35:44;;;;;;;13.00;8.93;;;;;;;;;;5056289;28;20060;-47
2021/09/21 13:38:10;;;;;;;10.43;7.10;;;;;;;;;;5056196;28;20025;-45
2021/09/21 13:40:38;;;;;;;11.40;5.45;;;;;;;;;;5055428;28;20028;-44
2021/09/21 13:43:05;;;;;;;12.10;4.90;;;;;;;;;;5053226;28;20433;-45
2021/09/21 13:45:33;;;;;;;6.55;5.18;;;;;;;;;;5055616;28;20056;-45
2021/09/21 13:48:00;;;;;;;16.33;10.52;;;;;;;;;;5055438;28;20051;-45
2021/09/21 13:50:26;;;;;;;41.65;23.77;;;;;;;;;;5055461;28;20017;-45
2021/09/21 13:52:53;;;;;;;70.07;41.20;;;;;;;;;;5055308;28;20374;-44
2021/09/21 13:55:20;;;;;;;23.15;15.13;;;;;;;;;;5054995;28;20036;-43
2021/09/21 13:57:46;;;;;;;29.80;18.25;;;;;;;;;;5055227;28;20028;-43
2021/09/21 14:00:14;;;;;;;29.45;17.88;;;;;;;;;;5055337;28;20025;-44
2021/09/21 14:02:41;;;;;;;109.00;66.53;;;;;;;;;;5055041;28;20036;-44
2021/09/21 14:05:07;;;;;;;45.65;25.15;;;;;;;;;;5055226;28;20021;-44
2021/09/21 14:07:34;;;;;;;93.40;58.67;;;;;;;;;;5035555;28;20033;-44
2021/09/21 14:10:00;;;;;;;19.25;12.25;;;;;;;;;;5023317;28;20025;-45
2021/09/21 14:12:27;;;;;;;18.20;11.18;;;;;;;;;;5022541;28;20036;-45
2021/09/21 14:14:53;;;;;;;20.67;12.60;;;;;;;;;;5022297;28;20072;-45
2021/09/21 14:17:20;;;;;;;17.08;10.38;;;;;;;;;;5023464;28;20042;-44
2021/09/21 14:19:46;;;;;;;10.75;7.20;;;;;;;;;;5022006;28;20017;-44
2021/09/21 14:22:12;;;;;;;9.73;7.10;;;;;;;;;;5022404;28;20024;-44
2021/09/21 14:24:40;;;;;;;15.50;8.38;;;;;;;;;;5022347;28;20044;-44
2021/09/21 14:27:06;;;;;;;12.05;8.73;;;;;;;;;;5023152;28;20088;-47
2021/09/21 14:29:33;;;;;;;13.48;8.75;;;;;;;;;;5023160;28;20025;-43
2021/09/21 14:31:59;;;;;;;14.48;7.75;;;;;;;;;;5023174;28;20096;-44
2021/09/21 14:34:26;;;;;;;18.58;11.20;;;;;;;;;;5023105;28;20140;-44